createdAt,value
2023-02-02T00:01:37.807Z,-0.84
2023-02-02T00:04:05.215Z,-0.69
2023-02-02T00:06:33.073Z,-0.54
2023-02-02T00:09:02.987Z,-0.52
2023-02-02T00:11:30.176Z,-0.45
2023-02-02T00:13:57.209Z,-0.15
2023-02-02T00:16:30.319Z,0.09
2023-02-02T00:19:01.003Z,0.27
2023-02-02T00:21:29.217Z,0.41
2023-02-02T00:23:56.417Z,0.50
2023-02-02T00:26:23.929Z,0.54
2023-02-02T00:28:51.925Z,0.61
2023-02-02T00:31:19.215Z,0.68
2023-02-02T00:33:48.115Z,0.71
2023-02-02T00:36:16.069Z,0.69
2023-02-02T00:38:43.353Z,0.66
2023-02-02T00:41:10.509Z,0.62
2023-02-02T00:43:37.597Z,0.59
2023-02-02T00:46:05.618Z,0.46
2023-02-02T00:48:32.924Z,0.38
2023-02-02T00:51:01.723Z,0.25
2023-02-02T00:53:29.474Z,0.15
2023-02-02T00:55:56.607Z,-0.02
2023-02-02T00:58:23.633Z,-0.15
2023-02-02T01:00:51.727Z,-0.28
2023-02-02T01:03:18.861Z,-0.41
2023-02-02T01:05:45.984Z,-0.54
2023-02-02T01:08:13.060Z,-0.64
2023-02-02T01:10:40.129Z,-0.69
2023-02-02T01:13:07.167Z,-0.71
2023-02-02T01:15:34.158Z,-0.69
2023-02-02T01:18:01.184Z,-0.68
2023-02-02T01:20:28.959Z,-0.65
2023-02-02T01:22:56.053Z,-0.64
2023-02-02T01:25:23.429Z,-0.64
2023-02-02T01:27:50.723Z,-0.63
2023-02-02T01:30:17.924Z,-0.61
2023-02-02T01:32:45.016Z,-0.60
2023-02-02T01:35:12.056Z,-0.59
2023-02-02T01:37:39.342Z,-0.59
2023-02-02T01:40:07.795Z,-0.61
2023-02-02T01:42:34.925Z,-0.66
2023-02-02T01:45:25.631Z,-0.72
2023-02-02T01:47:59.778Z,-0.79
2023-02-02T01:50:32.550Z,-0.83
2023-02-02T01:53:02.707Z,-0.86
2023-02-02T01:55:33.547Z,-0.90
2023-02-02T01:58:10.454Z,-0.92
2023-02-02T02:00:40.886Z,-0.95
2023-02-02T02:03:14.871Z,-0.97
2023-02-02T02:06:06.652Z,-0.98
2023-02-02T02:08:55.847Z,-0.97
2023-02-02T02:11:24.318Z,-0.97
2023-02-02T02:14:13.823Z,-1.05
2023-02-02T02:17:15.121Z,-1.13
2023-02-02T02:20:46.994Z,-1.14
2023-02-02T02:24:12.606Z,-1.17
2023-02-02T02:27:17.332Z,-1.24
2023-02-02T02:30:07.300Z,-1.33
2023-02-02T02:33:13.979Z,-1.43
2023-02-02T02:35:52.079Z,-1.52
2023-02-02T02:38:40.552Z,-1.59
2023-02-02T02:41:22.212Z,-1.69
2023-02-02T02:44:08.150Z,-1.76
2023-02-02T02:46:37.618Z,-1.73
2023-02-02T02:49:09.559Z,-1.68
2023-02-02T02:51:49.835Z,-1.64
2023-02-02T02:54:35.595Z,-1.60
2023-02-02T02:57:19.713Z,-1.57
2023-02-02T03:00:17.450Z,-1.59
2023-02-02T03:03:11.846Z,-1.61
2023-02-02T03:05:59.276Z,-1.57
2023-02-02T03:08:37.388Z,-1.44
2023-02-02T03:11:07.034Z,-1.28
2023-02-02T03:13:34.818Z,-1.18
2023-02-02T03:16:02.199Z,-1.10
2023-02-02T03:18:32.167Z,-1.05
2023-02-02T03:20:59.443Z,-1.03
2023-02-02T03:23:27.060Z,-1.02
2023-02-02T03:25:55.298Z,-1.00
2023-02-02T03:28:24.738Z,-0.98
2023-02-02T03:30:54.350Z,-0.94
2023-02-02T03:33:22.150Z,-0.92
2023-02-02T03:35:49.354Z,-0.92
2023-02-02T03:38:17.024Z,-0.92
2023-02-02T03:40:44.237Z,-0.93
2023-02-02T03:43:11.294Z,-0.95
2023-02-02T03:45:40.143Z,-0.98
2023-02-02T03:48:07.435Z,-1.00
2023-02-02T03:50:34.445Z,-1.02
2023-02-02T03:53:01.578Z,-1.03
2023-02-02T03:55:28.805Z,-1.02
2023-02-02T03:57:55.894Z,-1.01
2023-02-02T04:00:23.144Z,-0.98
2023-02-02T04:02:50.357Z,-0.93
2023-02-02T04:05:17.551Z,-0.85
2023-02-02T04:07:44.572Z,-0.74
2023-02-02T04:10:11.742Z,-0.66
2023-02-02T04:12:38.781Z,-0.57
2023-02-02T04:15:07.127Z,-0.48
2023-02-02T04:17:34.829Z,-0.40
2023-02-02T04:20:04.820Z,-0.35
2023-02-02T04:22:32.819Z,-0.26
2023-02-02T04:24:59.854Z,-0.09
2023-02-02T04:27:26.925Z,-0.03
2023-02-02T04:29:54.051Z,0.07
2023-02-02T04:32:21.112Z,0.27
2023-02-02T04:34:48.190Z,0.54
2023-02-02T04:37:15.203Z,0.73
2023-02-02T04:39:42.249Z,0.79
2023-02-02T04:42:09.391Z,0.78
2023-02-02T04:44:36.497Z,0.78
2023-02-02T04:47:03.578Z,0.78
2023-02-02T04:49:30.666Z,0.83
2023-02-02T04:51:57.696Z,0.82
2023-02-02T04:54:24.723Z,0.85
2023-02-02T04:56:51.799Z,0.85
2023-02-02T04:59:18.820Z,0.83
2023-02-02T05:01:45.883Z,0.79
2023-02-02T05:04:13.129Z,0.72
2023-02-02T05:06:40.144Z,0.66
2023-02-02T05:09:07.267Z,0.59
2023-02-02T05:11:34.300Z,0.49
2023-02-02T05:14:01.643Z,0.42
2023-02-02T05:16:29.284Z,0.40
2023-02-02T05:18:58.776Z,0.38
2023-02-02T05:21:26.288Z,0.36
2023-02-02T05:23:53.370Z,0.33
2023-02-02T05:26:26.202Z,0.31
2023-02-02T05:28:53.713Z,0.31
2023-02-02T05:31:20.862Z,0.25
2023-02-02T05:33:48.190Z,0.17
2023-02-02T05:36:15.269Z,0.08
2023-02-02T05:38:42.326Z,-0.06
2023-02-02T05:41:09.397Z,-0.22
2023-02-02T05:43:36.505Z,-0.33
2023-02-02T05:46:03.916Z,-0.52
2023-02-02T05:48:31.163Z,-0.75
2023-02-02T05:51:44.158Z,-0.90
2023-02-02T05:54:11.727Z,-1.12
2023-02-02T05:56:38.780Z,-1.26
2023-02-02T05:59:06.941Z,-1.39
2023-02-02T06:01:34.353Z,-1.53
2023-02-02T06:04:01.417Z,-1.66
2023-02-02T06:06:28.565Z,-1.71
2023-02-02T06:08:55.699Z,-1.71
2023-02-02T06:11:22.715Z,-1.72
2023-02-02T06:13:50.135Z,-1.79
2023-02-02T06:16:17.353Z,-1.85
2023-02-02T06:18:44.788Z,-1.92
2023-02-02T06:21:12.237Z,-1.94
2023-02-02T06:23:45.096Z,-1.97
2023-02-02T06:26:14.000Z,-1.97
2023-02-02T06:28:42.384Z,-1.93
2023-02-02T06:31:11.328Z,-1.86
2023-02-02T06:33:38.524Z,-1.79
2023-02-02T06:36:06.877Z,-1.66
2023-02-02T06:38:34.009Z,-1.55
2023-02-02T06:41:02.284Z,-1.40
2023-02-02T06:43:30.191Z,-1.25
2023-02-02T06:45:58.063Z,-1.16
2023-02-02T06:48:26.865Z,-1.07
2023-02-02T06:50:56.785Z,-0.98
2023-02-02T06:53:24.181Z,-0.86
2023-02-02T06:56:03.069Z,-0.73
2023-02-02T06:58:31.699Z,-0.59
2023-02-02T07:01:13.411Z,-0.49
2023-02-02T07:03:40.799Z,-0.37
2023-02-02T07:06:17.384Z,-0.27
2023-02-02T07:08:45.536Z,-0.16
2023-02-02T07:11:18.829Z,-0.04
2023-02-02T07:13:48.461Z,0.08
2023-02-02T07:16:18.335Z,0.21
2023-02-02T07:18:47.717Z,0.36
2023-02-02T07:21:21.672Z,0.55
2023-02-02T07:23:49.573Z,0.81
2023-02-02T07:26:18.834Z,1.03
2023-02-02T07:28:46.760Z,1.22
2023-02-02T07:31:25.651Z,1.39
2023-02-02T07:33:53.913Z,1.58
2023-02-02T07:36:24.063Z,1.75
2023-02-02T07:38:54.060Z,1.95
2023-02-02T07:41:22.127Z,2.20
2023-02-02T07:43:50.440Z,2.42
2023-02-02T07:46:18.952Z,2.64
2023-02-02T07:48:47.025Z,2.70
2023-02-02T07:51:17.772Z,2.76
2023-02-02T07:53:47.719Z,2.85
2023-02-02T07:56:18.114Z,2.98
2023-02-02T07:58:45.238Z,3.20
2023-02-02T08:01:15.569Z,3.39
2023-02-02T08:03:43.502Z,3.63
2023-02-02T08:06:22.803Z,3.90
2023-02-02T08:08:50.917Z,4.15
2023-02-02T08:11:20.950Z,4.49
2023-02-02T08:13:50.306Z,4.70
2023-02-02T08:16:18.419Z,4.87
2023-02-02T08:18:46.171Z,5.12
2023-02-02T08:21:13.892Z,5.29
2023-02-02T08:23:41.984Z,5.33
2023-02-02T08:26:21.712Z,5.63
2023-02-02T08:28:57.058Z,5.99
2023-02-02T08:31:45.450Z,6.23
2023-02-02T08:34:13.560Z,6.38
2023-02-02T08:36:41.523Z,6.36
2023-02-02T08:39:12.041Z,6.18
2023-02-02T08:41:39.207Z,5.98
2023-02-02T08:44:15.116Z,5.89
2023-02-02T08:46:42.620Z,5.84
2023-02-02T08:49:13.295Z,5.76
2023-02-02T08:51:41.145Z,5.65
2023-02-02T08:54:08.436Z,5.52
2023-02-02T08:56:35.530Z,5.47
2023-02-02T08:59:04.301Z,5.57
2023-02-02T09:01:33.131Z,5.44
2023-02-02T09:04:04.749Z,5.44
2023-02-02T09:06:40.540Z,5.46
2023-02-02T09:09:12.054Z,5.43
2023-02-02T09:11:39.824Z,5.45
2023-02-02T09:14:07.476Z,5.47
2023-02-02T09:16:35.611Z,5.44
2023-02-02T09:19:03.864Z,5.44
2023-02-02T09:21:36.167Z,5.43
2023-02-02T09:24:13.117Z,5.48
2023-02-02T09:26:41.998Z,5.52
2023-02-02T09:29:14.323Z,5.76
2023-02-02T09:31:41.931Z,5.93
2023-02-02T09:34:12.972Z,6.09
2023-02-02T09:36:41.937Z,6.07
2023-02-02T09:39:16.024Z,5.91
2023-02-02T09:41:53.696Z,6.02
2023-02-02T09:44:56.219Z,5.81
2023-02-02T09:48:05.637Z,5.80
2023-02-02T09:50:58.834Z,5.91
2023-02-02T09:53:55.580Z,6.15
2023-02-02T09:56:37.631Z,6.21
2023-02-02T09:59:19.311Z,6.23
2023-02-02T10:01:51.950Z,6.19
2023-02-02T10:04:29.426Z,6.12
2023-02-02T10:07:04.058Z,6.40
2023-02-02T10:09:41.402Z,6.32
2023-02-02T10:12:34.593Z,6.39
2023-02-02T10:15:23.772Z,6.15
2023-02-02T10:18:18.103Z,6.28
2023-02-02T10:20:58.978Z,6.45
2023-02-02T10:23:35.166Z,6.68
2023-02-02T10:26:19.228Z,6.91
2023-02-02T10:29:01.315Z,6.95
2023-02-02T10:31:48.783Z,7.15
2023-02-02T10:34:40.599Z,7.27
2023-02-02T10:37:35.484Z,7.48
2023-02-02T10:40:20.666Z,7.43
2023-02-02T10:43:45.704Z,7.40
2023-02-02T10:46:40.532Z,7.39
2023-02-02T10:49:33.084Z,7.10
2023-02-02T10:52:26.054Z,7.34
2023-02-02T10:55:14.713Z,7.06
2023-02-02T10:58:20.877Z,7.20
2023-02-02T11:00:57.642Z,7.11
2023-02-02T11:03:32.036Z,6.96
2023-02-02T11:06:21.818Z,6.77
2023-02-02T11:08:57.656Z,6.50
2023-02-02T11:11:44.744Z,6.28
2023-02-02T11:15:01.041Z,6.30
2023-02-02T11:17:29.398Z,6.36
2023-02-02T11:19:56.496Z,6.13
2023-02-02T11:22:44.226Z,6.17
2023-02-02T11:25:33.470Z,6.04
2023-02-02T11:28:18.203Z,6.07
2023-02-02T11:30:51.903Z,5.84
2023-02-02T11:33:35.165Z,5.71
2023-02-02T11:36:21.730Z,5.71
2023-02-02T11:38:48.951Z,6.10
2023-02-02T11:41:16.640Z,6.36
2023-02-02T11:43:54.602Z,6.61
2023-02-02T11:46:30.585Z,7.16
2023-02-02T11:49:03.493Z,7.18
2023-02-02T11:51:31.733Z,7.30
2023-02-02T11:54:07.340Z,7.31
2023-02-02T11:56:37.643Z,6.98
2023-02-02T11:59:05.019Z,6.71
2023-02-02T12:01:43.383Z,6.86
2023-02-02T12:04:16.679Z,6.88
2023-02-02T12:06:44.004Z,6.96
2023-02-02T12:09:19.242Z,7.13
2023-02-02T12:12:15.336Z,7.17
2023-02-02T12:14:50.889Z,7.52
2023-02-02T12:17:41.264Z,7.96
2023-02-02T12:20:26.278Z,8.13
2023-02-02T12:23:12.447Z,7.54
2023-02-02T12:26:02.456Z,7.44
2023-02-02T12:28:41.646Z,7.51
2023-02-02T12:31:19.260Z,7.46
2023-02-02T12:33:57.519Z,6.96
2023-02-02T12:36:51.908Z,6.93
2023-02-02T12:39:38.458Z,7.12
2023-02-02T12:42:26.192Z,7.43
2023-02-02T12:45:07.392Z,6.96
2023-02-02T12:47:56.346Z,6.81
2023-02-02T12:51:01.898Z,5.86
2023-02-02T12:53:47.237Z,5.77
2023-02-02T12:57:02.362Z,5.29
2023-02-02T13:00:17.013Z,5.30
2023-02-02T13:03:14.029Z,4.96
2023-02-02T13:06:48.770Z,4.98
2023-02-02T13:09:40.749Z,4.97
2023-02-02T13:12:15.143Z,4.91
2023-02-02T13:14:49.777Z,4.77
2023-02-02T13:17:45.970Z,4.62
2023-02-02T13:20:38.107Z,4.58
2023-02-02T13:23:14.916Z,4.45
2023-02-02T13:25:55.473Z,4.42
2023-02-02T13:28:37.830Z,4.51
2023-02-02T13:31:14.248Z,4.52
2023-02-02T13:33:47.940Z,4.49
2023-02-02T13:36:25.517Z,4.54
2023-02-02T13:38:59.852Z,4.58
2023-02-02T13:41:28.006Z,4.57
2023-02-02T13:44:14.646Z,4.50
2023-02-02T13:47:05.861Z,4.58
2023-02-02T13:49:43.560Z,4.56
2023-02-02T13:52:37.899Z,4.62
2023-02-02T13:55:31.577Z,4.59
2023-02-02T13:58:49.494Z,4.49
2023-02-02T14:01:17.236Z,4.49
2023-02-02T14:03:54.859Z,4.42
2023-02-02T14:06:27.089Z,4.42
2023-02-02T14:09:01.468Z,4.36
2023-02-02T14:11:32.470Z,4.29
2023-02-02T14:14:32.252Z,4.33
2023-02-02T14:17:02.533Z,4.32
2023-02-02T14:19:35.550Z,4.24
2023-02-02T14:22:04.918Z,4.17
2023-02-02T14:24:38.528Z,4.17
2023-02-02T14:27:08.672Z,4.08
2023-02-02T14:30:19.764Z,4.06
2023-02-02T14:32:47.090Z,3.96
2023-02-02T14:35:14.498Z,3.92
2023-02-02T14:37:58.615Z,3.82
2023-02-02T14:41:09.997Z,3.74
2023-02-02T14:43:50.495Z,3.65
2023-02-02T14:46:31.659Z,3.56
2023-02-02T14:49:01.724Z,3.49
2023-02-02T14:51:32.524Z,3.41
2023-02-02T14:54:05.747Z,3.28
2023-02-02T14:56:49.328Z,3.19
2023-02-02T14:59:38.309Z,3.10
2023-02-02T15:02:11.068Z,2.99
2023-02-02T15:04:38.833Z,2.88
2023-02-02T15:07:23.914Z,2.77
2023-02-02T15:09:55.820Z,2.63
2023-02-02T15:12:44.938Z,2.48
2023-02-02T15:15:29.343Z,2.31
2023-02-02T15:18:12.095Z,2.11
2023-02-02T15:20:51.723Z,1.93
2023-02-02T15:23:21.861Z,1.73
2023-02-02T15:26:13.230Z,1.52
2023-02-02T15:28:40.887Z,1.30
2023-02-02T15:31:10.864Z,1.13
2023-02-02T15:33:43.333Z,0.95
2023-02-02T15:36:21.204Z,0.80
2023-02-02T15:38:52.659Z,0.75
2023-02-02T15:41:32.108Z,0.72
2023-02-02T15:44:00.436Z,0.69
2023-02-02T15:46:35.216Z,0.65
2023-02-02T15:49:34.610Z,0.58
2023-02-02T15:52:21.490Z,0.41
2023-02-02T15:54:57.717Z,0.37
2023-02-02T15:57:40.007Z,0.38
2023-02-02T16:00:31.276Z,0.36
2023-02-02T16:03:20.483Z,0.30
2023-02-02T16:05:53.109Z,0.25
2023-02-02T16:08:29.285Z,0.21
2023-02-02T16:11:14.249Z,0.15
2023-02-02T16:13:58.143Z,0.13
2023-02-02T16:16:32.315Z,0.13
2023-02-02T16:19:13.506Z,0.13
2023-02-02T16:21:52.479Z,0.15
2023-02-02T16:24:31.379Z,0.18
2023-02-02T16:27:02.197Z,0.18
2023-02-02T16:29:29.498Z,0.19
2023-02-02T16:31:57.721Z,0.23
2023-02-02T16:34:40.192Z,0.24
2023-02-02T16:37:28.076Z,0.24
2023-02-02T16:39:57.076Z,0.22
2023-02-02T16:42:31.865Z,0.21
2023-02-02T16:45:00.454Z,0.18
2023-02-02T16:47:27.476Z,0.16
2023-02-02T16:50:17.762Z,0.18
2023-02-02T16:53:15.147Z,0.21
2023-02-02T16:55:50.949Z,0.23
2023-02-02T16:58:22.280Z,0.23
2023-02-02T17:01:16.643Z,0.23
2023-02-02T17:03:54.977Z,0.19
2023-02-02T17:06:33.160Z,0.14
2023-02-02T17:09:36.811Z,0.12
2023-02-02T17:12:34.588Z,0.11
2023-02-02T17:15:16.576Z,0.10
2023-02-02T17:17:48.698Z,0.10
2023-02-02T17:20:17.634Z,0.08
2023-02-02T17:22:52.775Z,0.04
2023-02-02T17:25:36.691Z,-0.03
2023-02-02T17:28:09.460Z,-0.12
2023-02-02T17:30:37.157Z,-0.24
2023-02-02T17:33:05.409Z,-0.36
2023-02-02T17:35:47.316Z,-0.45
2023-02-02T17:38:24.537Z,-0.53
2023-02-02T17:40:52.374Z,-0.58
2023-02-02T17:43:19.696Z,-0.62
2023-02-02T17:45:47.065Z,-0.63
2023-02-02T17:48:14.388Z,-0.64
2023-02-02T17:50:42.140Z,-0.65
2023-02-02T17:53:18.548Z,-0.69
2023-02-02T17:55:46.686Z,-0.73
2023-02-02T17:58:17.021Z,-0.70
2023-02-02T18:00:47.348Z,-0.65
2023-02-02T18:03:20.189Z,-0.61
2023-02-02T18:05:47.703Z,-0.57
2023-02-02T18:08:14.855Z,-0.52
2023-02-02T18:10:43.103Z,-0.50
2023-02-02T18:13:15.593Z,-0.48
2023-02-02T18:15:43.429Z,-0.47
2023-02-02T18:18:14.353Z,-0.49
2023-02-02T18:20:47.538Z,-0.51
2023-02-02T18:23:16.749Z,-0.51
2023-02-02T18:25:44.152Z,-0.48
2023-02-02T18:28:12.893Z,-0.45
2023-02-02T18:30:41.127Z,-0.39
2023-02-02T18:33:09.869Z,-0.28
2023-02-02T18:35:44.857Z,-0.16
2023-02-02T18:38:12.724Z,0.01
2023-02-02T18:40:39.963Z,0.15
2023-02-02T18:43:07.150Z,0.27
2023-02-02T18:45:35.199Z,0.40
2023-02-02T18:48:02.313Z,0.52
2023-02-02T18:50:29.507Z,0.66
2023-02-02T18:52:57.171Z,0.76
2023-02-02T18:55:24.684Z,0.82
2023-02-02T18:57:52.167Z,0.82
2023-02-02T19:00:21.441Z,0.76
2023-02-02T19:02:48.543Z,0.69
2023-02-02T19:05:34.023Z,0.60
2023-02-02T19:08:03.370Z,0.52
2023-02-02T19:10:30.910Z,0.46
2023-02-02T19:13:21.139Z,0.44
2023-02-02T19:15:50.303Z,0.40
2023-02-02T19:18:21.789Z,0.31
2023-02-02T19:20:50.718Z,0.21
2023-02-02T19:23:24.610Z,0.12
2023-02-02T19:25:56.111Z,0.01
2023-02-02T19:28:29.482Z,-0.10
2023-02-02T19:31:00.452Z,-0.23
2023-02-02T19:33:51.112Z,-0.39
2023-02-02T19:36:23.579Z,-0.50
2023-02-02T19:39:11.228Z,-0.62
2023-02-02T19:41:40.116Z,-0.74
2023-02-02T19:44:17.441Z,-0.86
2023-02-02T19:46:49.190Z,-0.96
2023-02-02T19:49:27.812Z,-0.99
2023-02-02T19:51:56.350Z,-0.96
2023-02-02T19:54:44.539Z,-0.96
2023-02-02T19:57:35.969Z,-1.00
2023-02-02T20:00:20.083Z,-1.05
2023-02-02T20:03:07.486Z,-1.07
2023-02-02T20:05:40.987Z,-1.10
2023-02-02T20:08:38.962Z,-1.13
2023-02-02T20:11:36.583Z,-1.15
2023-02-02T20:14:19.025Z,-1.13
2023-02-02T20:16:50.302Z,-1.14
2023-02-02T20:19:24.260Z,-1.18
2023-02-02T20:21:53.104Z,-1.16
2023-02-02T20:24:27.807Z,-1.15
2023-02-02T20:27:04.212Z,-1.14
2023-02-02T20:29:43.705Z,-1.05
2023-02-02T20:32:40.792Z,-0.95
2023-02-02T20:35:24.904Z,-0.89
2023-02-02T20:37:52.199Z,-0.85
2023-02-02T20:40:19.383Z,-0.79
2023-02-02T20:42:47.593Z,-0.75
2023-02-02T20:45:18.345Z,-0.71
2023-02-02T20:47:45.771Z,-0.70
2023-02-02T20:50:15.072Z,-0.65
2023-02-02T20:52:42.521Z,-0.59
2023-02-02T20:55:10.540Z,-0.51
2023-02-02T20:57:40.749Z,-0.45
2023-02-02T21:00:12.685Z,-0.37
2023-02-02T21:02:39.858Z,-0.32
2023-02-02T21:05:07.281Z,-0.30
2023-02-02T21:07:34.405Z,-0.28
2023-02-02T21:10:01.697Z,-0.23
2023-02-02T21:12:28.757Z,-0.19
2023-02-02T21:14:55.838Z,-0.14
2023-02-02T21:17:22.993Z,-0.09
2023-02-02T21:19:50.176Z,-0.07
2023-02-02T21:22:17.204Z,-0.05
2023-02-02T21:24:44.241Z,-0.06
2023-02-02T21:27:11.350Z,-0.09
2023-02-02T21:29:38.551Z,-0.14
2023-02-02T21:32:06.253Z,-0.15
2023-02-02T21:34:33.399Z,-0.11
2023-02-02T21:37:00.547Z,-0.06
2023-02-02T21:39:36.188Z,-0.02
2023-02-02T21:42:09.556Z,-0.01
2023-02-02T21:44:53.839Z,0.01
2023-02-02T21:47:56.211Z,0.00
2023-02-02T21:50:31.324Z,0.00
2023-02-02T21:53:18.429Z,-0.01
2023-02-02T21:55:59.748Z,0.02
2023-02-02T21:58:34.452Z,0.08
2023-02-02T22:01:20.151Z,0.19
2023-02-02T22:03:49.301Z,0.29
2023-02-02T22:06:36.234Z,0.35
2023-02-02T22:09:12.806Z,0.36
2023-02-02T22:12:01.462Z,0.31
2023-02-02T22:14:41.520Z,0.25
2023-02-02T22:17:25.957Z,0.24
2023-02-02T22:20:14.056Z,0.22
2023-02-02T22:22:46.115Z,0.22
2023-02-02T22:25:16.186Z,0.23
2023-02-02T22:27:47.093Z,0.20
2023-02-02T22:30:22.224Z,0.17
2023-02-02T22:32:49.321Z,0.12
2023-02-02T22:35:16.578Z,0.06
2023-02-02T22:37:43.674Z,0.05
2023-02-02T22:40:11.642Z,0.03
2023-02-02T22:42:38.779Z,-0.04
2023-02-02T22:45:06.444Z,-0.03
2023-02-02T22:47:33.534Z,0.02
2023-02-02T22:50:00.601Z,0.04
2023-02-02T22:52:27.797Z,0.06
2023-02-02T22:54:54.840Z,0.08
2023-02-02T22:57:21.995Z,0.13
2023-02-02T22:59:49.130Z,0.17
2023-02-02T23:02:16.280Z,0.22
2023-02-02T23:04:43.392Z,0.30
2023-02-02T23:07:10.419Z,0.32
2023-02-02T23:09:37.486Z,0.30
2023-02-02T23:12:04.928Z,0.27
2023-02-02T23:14:32.537Z,0.29
2023-02-02T23:16:59.588Z,0.33
2023-02-02T23:19:26.647Z,0.38
2023-02-02T23:21:53.683Z,0.46
2023-02-02T23:24:20.957Z,0.61
2023-02-02T23:26:48.170Z,0.86
2023-02-02T23:29:15.424Z,1.12
2023-02-02T23:31:42.621Z,1.26
2023-02-02T23:34:09.737Z,1.38
2023-02-02T23:36:36.821Z,1.75
2023-02-02T23:39:04.075Z,1.96
2023-02-02T23:41:31.224Z,2.10
2023-02-02T23:43:58.309Z,2.29
2023-02-02T23:46:25.679Z,2.51
2023-02-02T23:48:53.563Z,2.67
2023-02-02T23:51:20.714Z,2.69
2023-02-02T23:53:47.938Z,2.66
2023-02-02T23:56:15.581Z,2.64
2023-02-02T23:58:43.040Z,2.62
